Adrian, PA

3:04 AM EST on March 05, 2015 (GMT -0500)
West Hills Primary School | Change Station
CLOSE
Current Station
Personal Weather Station
Location: Kittanning, PA
Elevation: 1191 ft
Nearby Weather Stations

Elev 1191 ft 40.83 °N, 79.56 °W | Updated 1 second ago

Overcast
Overcast
23.5 °F
Feels Like 18 °F
N
4.0
Wind Variable Wind from West
Gusts 4.0 mph

Today
High -- | Low -- °F
--% Chance of Precip.
Yesterday
High -- | Low -- °F
Precip. -- in
6:46 AM 6:13 PM
Full, 100% visible
Pressure 30.12 in
Visibility 10.0 miles
Clouds Mostly Cloudy 2700 ft
Overcast 3500 ft
Windchill 18 °F
Dew Point 17 °F
Humidity 77%
Rainfall in
Snow Depth Not available.
UV 0 out of 12
Pollen .60 out of 12
Air Quality Not available.
Flu Activity Not available.
METAR KBTP 050755Z AUTO 34006G15KT 10SM BKN027 OVC035 M05/M11 A3012 RMK AO1

More Conditions Fewer Conditions

Pressure 30.12 in
Visibility 10.0 miles
Clouds Mostly Cloudy 2700 ft
Overcast 3500 ft
Windchill 18 °F
Dew Point 17 °F
Humidity 77%
Rainfall in
Snow Depth Not available.
UV 0 out of 12
Pollen .60 out of 12
Air Quality Not available.
Flu Activity Not available.
METAR KBTP 050755Z AUTO 34006G15KT 10SM BKN027 OVC035 M05/M11 A3012 RMK AO1

More Conditions Fewer Conditions

10-Day Weather Forecast

Almanac

Astronomy

Mar. 05, 2015 Rise Set
Actual Time
Civil Twilight
Nautical Twilight
Astronomical Twilight
Moon
Length of Visible Light
Length of Day
Tomorrow will be .
, % of the Moon is Illuminated

Today's Extremes

State Highs State Lows

Community

WunderPhotos

Upload Photos

1,802,704 photos uploaded!

WunderBlogs® & News

Nearby

Air Quality

  Air Quality AQ Index Pollutant
Not available.

Snow Depth

Station Depth Elevation

Earthquake Activity

City Distance Mag. Time & Date
Minimum magnitude displayed is 2.5.

Coastal Water Temperatures

Place Temperature

Nearby Weather Stations